Time;durP1;ratioP1;P1;durP2;ratioP2;P2;SDS_P1;SDS_P2;PMS_P1;PMS_P2;Temp;Humidity;BMP_temperature;BMP_pressure;BME280_temperature;BME280_humidity;BME280_pressure;Samples;Min_cycle;Max_cycle;Signal;HPM_P1;HPM_P2
2021/07/19 00:01:47;;;;;;;8.05;4.57;;;;;;;24.45;57.97;100363.47;5035896;28;20045;-64
2021/07/19 00:04:38;;;;;;;9.35;5.15;;;;;;;24.42;57.96;100369.88;5036394;28;20052;-65
2021/07/19 00:07:23;;;;;;;7.20;4.03;;;;;;;24.42;58.00;100361.53;5036347;28;20045;-65
2021/07/19 00:10:11;;;;;;;5.43;3.75;;;;;;;24.40;58.00;100355.59;5033799;28;20056;-65
2021/07/19 00:12:56;;;;;;;7.40;3.92;;;;;;;24.37;58.18;100361.22;5033541;28;20421;-65
2021/07/19 00:15:41;;;;;;;8.68;4.32;;;;;;;24.33;58.17;100363.25;5033406;28;20053;-64
2021/07/19 00:18:26;;;;;;;8.57;3.67;;;;;;;24.30;57.99;100367.66;5035163;28;20048;-65
2021/07/19 00:21:11;;;;;;;6.85;3.17;;;;;;;24.32;58.19;100372.81;5033524;28;20068;-64
2021/07/19 00:23:55;;;;;;;7.50;3.67;;;;;;;24.31;57.97;100365.66;5035755;28;20052;-63
2021/07/19 00:26:40;;;;;;;9.55;3.65;;;;;;;24.26;58.17;100366.91;5039237;28;20048;-63
2021/07/19 00:29:26;;;;;;;6.43;3.78;;;;;;;24.32;57.88;100362.47;5037228;28;20397;-64
2021/07/19 00:32:11;;;;;;;10.65;3.85;;;;;;;24.36;57.72;100365.19;5036169;28;20056;-64
2021/07/19 00:34:56;;;;;;;7.25;3.97;;;;;;;24.39;57.68;100370.69;5035556;28;20060;-63
2021/07/19 00:37:42;;;;;;;5.05;3.55;;;;;;;24.37;57.66;100367.56;5037295;28;20069;-63
2021/07/19 00:40:29;;;;;;;6.15;4.30;;;;;;;24.32;57.75;100376.38;5037225;28;20044;-62
2021/07/19 00:43:14;;;;;;;5.15;3.67;;;;;;;24.31;57.64;100372.00;5034022;28;20068;-64
2021/07/19 00:45:59;;;;;;;12.27;3.72;;;;;;;24.29;57.84;100366.06;5030931;28;20065;-63
2021/07/19 00:48:44;;;;;;;6.03;3.92;;;;;;;24.28;57.83;100370.03;5018384;28;20099;-65
2021/07/19 00:51:31;;;;;;;7.13;3.40;;;;;;;24.33;57.60;100377.91;5019179;28;20402;-65
2021/07/19 00:54:21;;;;;;;3.53;2.75;;;;;;;24.37;57.32;100377.91;5016990;28;20073;-65
2021/07/19 00:57:06;;;;;;;5.22;3.40;;;;;;;24.39;57.32;100384.59;5052721;28;20056;-64
2021/07/19 00:59:54;;;;;;;6.25;4.55;;;;;;;24.40;57.22;100388.97;5032380;28;20072;-63
2021/07/19 01:02:46;;;;;;;9.27;4.00;;;;;;;24.42;57.45;100385.78;5037931;28;20063;-64
2021/07/19 01:05:37;;;;;;;6.45;3.90;;;;;;;24.41;57.38;100375.84;5033044;28;20061;-63
2021/07/19 01:08:25;;;;;;;6.70;4.53;;;;;;;24.40;57.42;100372.28;5038045;28;20090;-64
2021/07/19 01:11:13;;;;;;;9.98;3.85;;;;;;;24.36;57.74;100370.75;5037665;28;20060;-65
2021/07/19 01:13:59;;;;;;;6.60;4.03;;;;;;;24.32;58.02;100370.03;5035072;28;20057;-63
2021/07/19 01:16:44;;;;;;;13.88;4.65;;;;;;;24.27;58.14;100368.50;5037488;28;20581;-64
2021/07/19 01:19:34;;;;;;;5.00;3.95;;;;;;;24.25;58.31;100371.69;5031721;28;20049;-65
2021/07/19 01:22:31;;;;;;;8.02;3.97;;;;;;;24.25;58.25;100370.88;5015622;28;20053;-65
2021/07/19 01:25:58;;;;;;;4.60;3.55;;;;;;;24.26;58.18;100361.34;5016494;28;21005;-64
2021/07/19 01:28:48;;;;;;;6.95;4.05;;;;;;;24.28;58.47;100370.03;5037394;28;20056;-65
2021/07/19 01:31:38;;;;;;;5.65;3.95;;;;;;;24.27;58.39;100376.84;5038595;28;20040;-64
2021/07/19 01:34:25;;;;;;;8.52;3.75;;;;;;;24.30;58.24;100378.75;5035984;28;20053;-64
2021/07/19 01:37:11;;;;;;;6.60;3.22;;;;;;;24.31;58.33;100366.44;5036973;28;20048;-64
2021/07/19 01:40:22;;;;;;;6.50;3.80;;;;;;;24.30;58.31;100367.66;5038501;28;20056;-65
2021/07/19 01:43:09;;;;;;;6.45;4.15;;;;;;;24.31;58.36;100362.88;5032793;28;20072;-64
2021/07/19 01:45:56;;;;;;;5.20;3.78;;;;;;;24.29;58.27;100360.50;5030305;28;20052;-64
2021/07/19 01:48:48;;;;;;;5.53;3.90;;;;;;;24.28;58.34;100364.50;5034806;28;20049;-64
2021/07/19 01:51:37;;;;;;;7.38;4.40;;;;;;;24.31;58.44;100360.88;5030895;28;20045;-65
2021/07/19 01:54:22;;;;;;;6.20;4.13;;;;;;;24.22;59.05;100368.97;5032362;28;20060;-65
2021/07/19 01:57:11;;;;;;;6.07;4.22;;;;;;;23.92;60.99;100371.66;5036720;28;20068;-64
2021/07/19 02:00:08;;;;;;;6.68;4.35;;;;;;;23.82;61.16;100365.78;5037279;28;20048;-65
2021/07/19 02:03:00;;;;;;;6.10;3.78;;;;;;;23.96;60.03;100366.84;5031496;28;20048;-66
2021/07/19 02:05:49;;;;;;;7.80;4.50;;;;;;;23.95;60.36;100359.72;5030114;28;20052;-66
2021/07/19 02:08:38;;;;;;;8.13;3.58;;;;;;;24.05;60.54;100361.59;5031767;28;20044;-64
2021/07/19 02:11:35;;;;;;;7.28;3.15;;;;;;;24.12;59.64;100364.28;5035760;28;20113;-65
2021/07/19 02:14:21;;;;;;;7.57;3.55;;;;;;;24.19;59.37;100355.88;5033003;28;20080;-65
2021/07/19 02:17:19;;;;;;;5.38;3.40;;;;;;;24.25;59.32;100360.56;5036837;28;20044;-66
2021/07/19 02:20:08;;;;;;;5.80;3.25;;;;;;;24.26;59.30;100356.59;5037825;28;20064;-65
2021/07/19 02:22:56;;;;;;;6.60;3.90;;;;;;;24.25;59.58;100360.56;5037177;28;20044;-67
2021/07/19 02:26:19;;;;;;;7.15;3.95;;;;;;;24.26;59.49;100366.91;5032095;28;20052;-66
2021/07/19 02:29:08;;;;;;;5.10;3.53;;;;;;;24.27;59.67;100360.16;5040019;28;20049;-65
2021/07/19 02:31:53;;;;;;;5.28;3.60;;;;;;;24.30;59.60;100367.66;5038246;28;20112;-64
2021/07/19 02:34:38;;;;;;;4.63;3.63;;;;;;;24.27;59.77;100358.16;5037550;28;20064;-66
2021/07/19 02:37:24;;;;;;;4.20;3.13;;;;;;;24.28;59.93;100365.28;5040446;28;20072;-64
2021/07/19 02:40:33;;;;;;;7.35;3.58;;;;;;;24.22;60.09;100360.63;5040419;28;20052;-65
2021/07/19 02:43:21;;;;;;;8.35;3.55;;;;;;;24.22;60.13;100355.84;5035250;28;20136;-64
2021/07/19 02:46:09;;;;;;;9.60;3.97;;;;;;;24.24;60.27;100361.75;5040347;28;20048;-65
2021/07/19 02:49:10;;;;;;;4.25;3.20;;;;;;;24.23;59.95;100354.63;5040232;28;20053;-64
2021/07/19 02:51:56;;;;;;;8.23;4.38;;;;;;;24.26;60.14;100353.81;5041086;28;20045;-63
2021/07/19 02:54:43;;;;;;;5.40;3.47;;;;;;;24.23;60.09;100351.84;5037263;28;20052;-65
2021/07/19 02:57:35;;;;;;;8.65;3.65;;;;;;;24.24;59.97;100341.53;5039852;28;20061;-65
2021/07/19 03:00:22;;;;;;;6.07;3.45;;;;;;;24.20;59.90;100332.44;5033967;28;20048;-64
2021/07/19 03:03:24;;;;;;;3.80;2.80;;;;;;;24.23;60.00;100342.72;5040183;28;20059;-64
2021/07/19 03:06:16;;;;;;;5.25;3.80;;;;;;;24.21;59.63;100345.16;5040918;28;20508;-64
2021/07/19 03:09:03;;;;;;;8.00;3.72;;;;;;;24.19;59.96;100339.19;5038020;28;20044;-65
2021/07/19 03:12:01;;;;;;;11.00;3.53;;;;;;;24.16;59.81;100351.94;5039977;28;20052;-66
2021/07/19 03:14:49;;;;;;;4.35;3.30;;;;;;;24.10;59.88;100358.34;5037438;28;20056;-63
2021/07/19 03:17:38;;;;;;;6.88;3.25;;;;;;;24.01;60.33;100360.84;5036495;28;20073;-65
2021/07/19 03:20:24;;;;;;;6.35;3.28;;;;;;;24.11;59.82;100355.16;5039920;28;20528;-65
2021/07/19 03:23:15;;;;;;;5.00;3.05;;;;;;;24.13;60.13;100351.94;5039570;28;20508;-65
2021/07/19 03:26:02;;;;;;;3.30;3.00;;;;;;;24.18;59.86;100357.06;5040936;28;20056;-64
2021/07/19 03:28:48;;;;;;;6.45;3.45;;;;;;;24.21;59.43;100353.47;5040928;28;20052;-64
2021/07/19 03:31:34;;;;;;;5.22;3.10;;;;;;;24.27;59.37;100349.03;5040612;28;20048;-64
2021/07/19 03:34:20;;;;;;;6.60;2.90;;;;;;;24.25;59.19;100355.00;5037879;28;20417;-64
2021/07/19 03:37:07;;;;;;;5.20;3.10;;;;;;;24.28;59.25;100356.16;5037406;28;20049;-64
2021/07/19 03:39:58;;;;;;;4.20;3.28;;;;;;;24.19;59.14;100356.66;5034353;28;20052;-64
2021/07/19 03:42:47;;;;;;;8.18;3.05;;;;;;;23.89;60.43;100353.84;5038871;28;20520;-63
2021/07/19 03:45:33;;;;;;;12.20;4.30;;;;;;;23.90;59.92;100352.63;5034696;28;20429;-64
2021/07/19 03:48:21;;;;;;;10.73;3.15;;;;;;;24.05;59.76;100350.47;5039389;28;20044;-64
2021/07/19 03:51:07;;;;;;;5.03;3.00;;;;;;;24.12;59.48;100361.50;5031196;28;20053;-64
2021/07/19 03:53:52;;;;;;;7.18;3.67;;;;;;;24.14;59.59;100348.75;5013693;28;20052;-64
2021/07/19 03:56:39;;;;;;;6.05;3.35;;;;;;;24.17;59.32;100349.97;5020346;28;20057;-64
2021/07/19 03:59:28;;;;;;;4.22;3.22;;;;;;;24.12;59.25;100351.19;5028044;28;20521;-64
2021/07/19 04:02:14;;;;;;;6.63;3.55;;;;;;;24.15;59.36;100360.66;5020274;28;20061;-66
2021/07/19 04:05:07;;;;;;;6.35;4.38;;;;;;;24.03;58.85;100366.75;5015968;28;20049;-64
2021/07/19 04:08:09;;;;;;;8.30;3.75;;;;;;;23.43;61.43;100371.72;5020261;28;20045;-64
2021/07/19 04:10:55;;;;;;;6.07;2.95;;;;;;;23.49;61.08;100369.31;5020746;28;20048;-65
2021/07/19 04:13:43;;;;;;;5.70;3.08;;;;;;;23.65;60.83;100366.78;5039238;28;20409;-67
2021/07/19 04:16:28;;;;;;;5.43;3.38;;;;;;;23.71;60.66;100367.94;5037346;28;20616;-67
2021/07/19 04:19:13;;;;;;;5.75;3.47;;;;;;;23.88;59.72;100363.34;5038727;28;20159;-66
2021/07/19 04:22:01;;;;;;;4.40;3.60;;;;;;;23.96;59.77;100364.88;5039545;28;20044;-65
2021/07/19 04:25:06;;;;;;;5.70;3.60;;;;;;;23.91;59.91;100356.19;5026615;28;20053;-67
2021/07/19 04:27:51;;;;;;;8.18;4.13;;;;;;;23.82;59.84;100371.34;5025678;28;20048;-66
2021/07/19 04:30:37;;;;;;;9.10;4.53;;;;;;;23.53;60.68;100377.63;5033993;28;20462;-66
2021/07/19 04:33:24;;;;;;;7.15;4.53;;;;;;;23.11;62.45;100382.31;5026853;28;20049;-66
2021/07/19 04:36:09;;;;;;;8.10;5.05;;;;;;;22.95;63.55;100388.38;5015525;28;20048;-66
2021/07/19 04:38:55;;;;;;;9.15;4.90;;;;;;;22.78;64.12;100385.72;5030626;28;20441;-67
2021/07/19 04:41:39;;;;;;;7.00;4.80;;;;;;;22.77;64.34;100384.13;5036557;28;20064;-66
2021/07/19 04:44:24;;;;;;;5.72;3.55;;;;;;;23.14;63.28;100387.06;5035592;28;20052;-66
2021/07/19 04:47:09;;;;;;;7.10;3.65;;;;;;;23.40;62.42;100382.88;5038891;28;20052;-66
2021/07/19 04:49:54;;;;;;;8.40;3.75;;;;;;;23.41;62.19;100387.22;5038448;28;20052;-67
2021/07/19 04:52:40;;;;;;;11.48;3.60;;;;;;;23.61;61.81;100387.47;5036962;28;20049;-66
2021/07/19 04:55:26;;;;;;;9.20;3.90;;;;;;;23.73;61.40;100392.50;5033675;28;20064;-66
2021/07/19 04:58:14;;;;;;;9.80;3.42;;;;;;;23.78;61.23;100389.25;5036622;28;20060;-67
2021/07/19 05:01:03;;;;;;;11.48;6.05;;;;;;;23.58;61.89;100391.84;5036468;28;20069;-66
2021/07/19 05:03:53;;;;;;;7.05;4.70;;;;;;;23.48;62.92;100395.50;5038064;28;20067;-66
2021/07/19 05:06:41;;;;;;;12.43;3.63;;;;;;;23.66;61.49;100392.56;5038831;28;20063;-65
2021/07/19 05:09:27;;;;;;;10.48;4.45;;;;;;;23.75;61.14;100393.66;5032888;28;20036;-66
2021/07/19 05:12:18;;;;;;;8.52;6.20;;;;;;;23.64;62.04;100394.97;5029295;28;20040;-66
2021/07/19 05:15:03;;;;;;;23.10;6.22;;;;;;;23.62;61.76;100395.38;5032475;28;20060;-66
2021/07/19 05:17:49;;;;;;;9.50;6.95;;;;;;;23.63;61.83;100398.94;5034416;28;20053;-66
2021/07/19 05:20:36;;;;;;;9.45;7.15;;;;;;;23.58;61.88;100389.06;5032916;28;20512;-66
2021/07/19 05:23:23;;;;;;;9.93;4.78;;;;;;;23.70;61.81;100387.78;5033127;28;20044;-66
2021/07/19 05:26:07;;;;;;;6.32;4.30;;;;;;;23.84;61.58;100382.84;5032482;28;20052;-66
2021/07/19 05:28:52;;;;;;;7.63;5.43;;;;;;;23.95;60.92;100388.28;5032695;28;20100;-67
2021/07/19 05:31:38;;;;;;;9.95;7.13;;;;;;;23.81;61.06;100396.78;5033123;28;20524;-66
2021/07/19 05:34:23;;;;;;;15.88;7.53;;;;;;;23.66;61.67;100390.59;5033203;28;20052;-66
2021/07/19 05:37:08;;;;;;;12.93;7.63;;;;;;;23.77;61.67;100390.47;5027482;28;20053;-67
2021/07/19 05:39:53;;;;;;;12.98;7.00;;;;;;;23.80;61.55;100393.22;5029343;28;20052;-67
2021/07/19 05:42:39;;;;;;;12.18;6.63;;;;;;;23.85;60.31;100392.75;5037772;28;21743;-67
2021/07/19 05:45:23;;;;;;;15.55;6.80;;;;;;;23.95;60.62;100401.38;5040854;28;20056;-66
2021/07/19 05:48:08;;;;;;;11.95;7.40;;;;;;;24.00;61.37;100398.94;5057089;28;20044;-66
2021/07/19 05:50:54;;;;;;;12.43;7.53;;;;;;;24.02;62.08;100407.66;5055237;28;20044;-66
2021/07/19 05:53:38;;;;;;;15.15;7.38;;;;;;;24.13;60.65;100399.19;5037126;28;20048;-68
2021/07/19 05:56:23;;;;;;;8.20;6.85;;;;;;;24.18;60.55;100404.31;5035486;28;20516;-66
2021/07/19 05:59:10;;;;;;;10.07;6.40;;;;;;;24.26;59.81;100408.59;5031474;28;20052;-66
2021/07/19 06:01:55;;;;;;;17.42;7.13;;;;;;;24.27;60.31;100413.75;5032540;28;20540;-66
2021/07/19 06:04:40;;;;;;;13.82;6.43;;;;;;;24.32;59.55;100409.72;5039099;28;20057;-66
2021/07/19 06:07:25;;;;;;;14.02;5.00;;;;;;;24.42;59.24;100419.91;5042001;28;20052;-67
2021/07/19 06:10:11;;;;;;;12.02;6.57;;;;;;;24.42;59.30;100422.69;5042175;28;20036;-67
2021/07/19 06:12:56;;;;;;;13.13;7.53;;;;;;;24.48;59.74;100415.44;5041828;28;20056;-66
2021/07/19 06:15:41;;;;;;;;;;;;;;;24.57;59.25;100420.53;5036411;28;20442;-66
2021/07/19 06:18:25;;;;;;;13.30;6.07;;;;;;;24.62;58.97;100418.06;5035213;28;20365;-67
2021/07/19 06:21:10;;;;;;;11.52;6.22;;;;;;;24.67;59.10;100420.38;5041933;28;20048;-66
2021/07/19 06:23:55;;;;;;;14.73;8.70;;;;;;;24.74;59.63;100416.69;5040662;28;20053;-65
2021/07/19 06:26:40;;;;;;;7.63;5.28;;;;;;;24.84;58.78;100415.75;5041824;28;20044;-66
2021/07/19 06:29:25;;;;;;;8.85;5.57;;;;;;;24.86;57.63;100418.13;5041678;28;20401;-66
2021/07/19 06:32:10;;;;;;;9.00;4.55;;;;;;;24.98;57.66;100420.38;5035200;28;20048;-66
2021/07/19 06:34:54;;;;;;;8.73;4.93;;;;;;;25.06;57.46;100424.59;5036389;28;20072;-68
2021/07/19 06:37:40;;;;;;;13.80;6.97;;;;;;;25.18;57.33;100421.25;5041546;28;20063;-68
2021/07/19 06:40:25;;;;;;;12.02;5.28;;;;;;;25.30;56.70;100415.06;5037805;28;20048;-67
2021/07/19 06:43:10;;;;;;;10.73;4.57;;;;;;;25.40;55.71;100422.47;5036567;28;20426;-69
2021/07/19 06:45:55;;;;;;;16.42;5.97;;;;;;;25.36;56.16;100409.81;5033670;28;20064;-68
2021/07/19 06:48:41;;;;;;;7.55;5.20;;;;;;;25.45;56.42;100415.63;5041539;28;20057;-66
2021/07/19 06:51:26;;;;;;;9.35;5.18;;;;;;;25.50;56.09;100417.91;5041097;28;20052;-66
2021/07/19 06:54:10;;;;;;;;;;;;;;;25.50;55.90;100413.13;5023481;28;20051;-67
2021/07/19 06:56:55;;;;;;;12.70;4.03;;;;;;;25.56;55.47;100413.47;5021700;28;19913;-66
2021/07/19 06:59:40;;;;;;;17.95;6.10;;;;;;;25.55;55.56;100401.53;5015580;28;20406;-67
2021/07/19 07:02:25;;;;;;;13.88;5.03;;;;;;;25.55;55.38;100411.91;5034086;28;20405;-67
2021/07/19 07:05:10;;;;;;;10.02;4.10;;;;;;;25.40;55.71;100416.09;5036138;28;20132;-65
2021/07/19 07:07:55;;;;;;;13.75;4.95;;;;;;;25.48;55.21;100407.22;5026096;28;20417;-66
2021/07/19 07:10:40;;;;;;;13.25;4.35;;;;;;;25.59;55.00;100417.41;5023973;28;20048;-66
2021/07/19 07:13:26;;;;;;;13.18;4.68;;;;;;;25.74;54.54;100429.88;5038499;28;20052;-65
2021/07/19 07:16:11;;;;;;;6.88;3.75;;;;;;;25.83;54.13;100425.31;5028528;28;20064;-64
2021/07/19 07:18:56;;;;;;;10.52;4.97;;;;;;;26.04;53.11;100426.13;5040681;28;20048;-65
2021/07/19 07:21:42;;;;;;;14.93;4.47;;;;;;;26.33;52.64;100425.16;5035711;28;20052;-65
2021/07/19 07:24:27;;;;;;;8.25;3.78;;;;;;;26.56;50.24;100426.31;5033808;28;20068;-65
2021/07/19 07:27:12;;;;;;;14.00;3.88;;;;;;;26.91;50.31;100427.56;5037934;28;20052;-67
2021/07/19 07:29:57;;;;;;;11.38;4.40;;;;;;;26.85;50.32;100424.47;5036162;28;20049;-66
2021/07/19 07:32:43;;;;;;;7.93;3.90;;;;;;;26.59;51.15;100422.66;5040514;28;20053;-66
2021/07/19 07:35:27;;;;;;;12.18;3.40;;;;;;;26.45;51.95;100429.31;5035081;28;20048;-67
2021/07/19 07:38:13;;;;;;;8.75;3.40;;;;;;;26.37;52.08;100420.31;5040478;28;20057;-65
2021/07/19 07:40:58;;;;;;;45.08;9.10;;;;;;;26.20;52.25;100424.22;5033365;28;20064;-66
2021/07/19 07:43:43;;;;;;;199.85;33.58;;;;;;;26.23;52.55;100423.38;5036997;28;20527;-66
2021/07/19 07:46:28;;;;;;;69.00;12.73;;;;;;;26.33;52.48;100425.16;5039733;28;20401;-67
2021/07/19 07:49:13;;;;;;;76.60;13.50;;;;;;;26.38;52.05;100424.66;5034163;28;20409;-67
2021/07/19 07:51:58;;;;;;;52.40;10.35;;;;;;;26.59;51.50;100422.66;5036859;28;20041;-65
2021/07/19 07:54:43;;;;;;;37.33;6.63;;;;;;;26.66;51.23;100422.50;5028095;28;20041;-66
2021/07/19 07:57:27;;;;;;;28.85;7.05;;;;;;;26.78;50.91;100419.03;5019731;28;20052;-68
2021/07/19 08:00:15;;;;;;;172.50;14.10;;;;;;;26.81;50.81;100413.38;5037133;28;20052;-66
2021/07/19 08:02:59;;;;;;;25.85;7.15;;;;;;;26.71;50.99;100414.41;5040069;28;20041;-66
2021/07/19 08:05:44;;;;;;;32.25;5.95;;;;;;;26.60;51.18;100415.84;5033041;28;20044;-66
2021/07/19 08:08:29;;;;;;;22.20;4.43;;;;;;;26.66;49.39;100414.13;5038161;28;20064;-64
2021/07/19 08:11:14;;;;;;;21.80;4.50;;;;;;;26.82;50.15;100419.72;5036157;28;20048;-66
2021/07/19 08:13:59;;;;;;;19.33;4.18;;;;;;;26.74;49.98;100415.53;5030842;28;20041;-66
2021/07/19 08:16:44;;;;;;;8.10;3.25;;;;;;;26.72;50.34;100415.16;5037295;28;20516;-66
2021/07/19 08:19:32;;;;;;;11.10;3.92;;;;;;;26.81;49.39;100412.59;5036278;28;20520;-66
2021/07/19 08:22:19;;;;;;;12.57;4.18;;;;;;;26.94;48.92;100402.34;5025787;28;20413;-66
2021/07/19 08:25:05;;;;;;;12.32;4.07;;;;;;;27.03;48.58;100413.69;5018720;28;20053;-65
2021/07/19 08:27:50;;;;;;;10.10;3.70;;;;;;;27.15;48.08;100415.00;5024258;28;20044;-66
2021/07/19 08:30:35;;;;;;;10.27;3.17;;;;;;;27.11;47.89;100417.91;5034463;28;20053;-67
2021/07/19 08:33:20;;;;;;;8.77;2.80;;;;;;;26.93;47.54;100413.94;5028033;28;20068;-66
2021/07/19 08:36:06;;;;;;;9.07;3.10;;;;;;;26.88;47.80;100415.22;5035754;28;20044;-66
2021/07/19 08:38:51;;;;;;;8.10;2.97;;;;;;;26.85;47.62;100418.88;5033976;28;20044;-65
2021/07/19 08:41:36;;;;;;;7.03;3.28;;;;;;;26.69;48.17;100421.63;5034292;28;20060;-67
2021/07/19 08:44:22;;;;;;;10.82;2.72;;;;;;;26.80;45.38;100411.00;5035893;28;20053;-66
2021/07/19 08:47:08;;;;;;;18.10;2.85;;;;;;;27.37;43.37;100420.88;5034253;28;20048;-67
2021/07/19 08:49:53;;;;;;;16.25;3.08;;;;;;;27.44;43.26;100418.66;5037856;28;20505;-67
2021/07/19 08:52:39;;;;;;;11.25;3.33;;;;;;;27.56;42.73;100411.63;5035718;28;20060;-67
2021/07/19 08:55:25;;;;;;;7.50;3.28;;;;;;;27.56;42.80;100411.63;5033788;28;20049;-65
2021/07/19 08:58:13;;;;;;;11.48;3.03;;;;;;;27.74;41.84;100408.34;5032157;28;20052;-67
2021/07/19 09:00:58;;;;;;;6.15;2.60;;;;;;;27.76;41.43;100403.91;5039535;28;20064;-66
2021/07/19 09:03:47;;;;;;;5.60;2.60;;;;;;;28.06;39.75;100408.25;5045233;28;20426;-67
2021/07/19 09:06:32;;;;;;;12.60;2.95;;;;;;;28.37;39.13;100414.19;5042109;28;20043;-67
2021/07/19 09:09:31;;;;;;;13.68;3.50;;;;;;;28.85;36.93;100402.00;5045490;28;20048;-66
2021/07/19 09:12:17;;;;;;;9.10;2.25;;;;;;;29.20;34.33;100408.47;5042224;28;20072;-64
2021/07/19 09:15:03;;;;;;;12.00;3.10;;;;;;;28.85;35.89;100402.00;5029930;28;20044;-67
2021/07/19 09:17:58;;;;;;;18.98;3.22;;;;;;;28.85;36.36;100404.78;5036736;28;20082;-65
2021/07/19 09:20:43;;;;;;;13.75;2.78;;;;;;;27.99;40.34;100405.66;5035448;28;20044;-66
2021/07/19 09:23:29;;;;;;;14.27;2.95;;;;;;;28.00;39.47;100402.44;5037552;28;20437;-65
2021/07/19 09:26:14;;;;;;;6.00;2.13;;;;;;;28.23;38.31;100406.22;5032821;28;20044;-65
2021/07/19 09:29:04;;;;;;;8.02;2.80;;;;;;;28.24;39.13;100407.81;5032706;28;20048;-65
2021/07/19 09:31:57;;;;;;;8.13;2.47;;;;;;;27.99;38.43;100406.44;5034599;28;20057;-66
2021/07/19 09:34:42;;;;;;;7.45;2.30;;;;;;;27.76;41.15;100403.91;5034980;28;20045;-67
2021/07/19 09:37:27;;;;;;;6.15;2.67;;;;;;;27.87;39.76;100403.63;5034531;28;20045;-67
2021/07/19 09:40:13;;;;;;;10.23;2.67;;;;;;;28.11;40.02;100392.94;5035299;28;20064;-66
2021/07/19 09:42:57;;;;;;;11.52;2.88;;;;;;;28.44;38.29;100408.41;5033948;28;20052;-67
2021/07/19 09:45:43;;;;;;;8.98;3.15;;;;;;;28.66;37.37;100403.72;5020808;28;20042;-66
2021/07/19 09:48:28;;;;;;;6.32;2.20;;;;;;;28.37;39.72;100386.22;5036500;28;20430;-66
2021/07/19 09:51:13;;;;;;;5.05;2.13;;;;;;;28.19;40.03;100395.13;5036637;28;20405;-65
2021/07/19 09:54:08;;;;;;;7.63;2.55;;;;;;;28.23;39.55;100395.81;5031614;28;20053;-66
2021/07/19 09:57:00;;;;;;;9.38;3.17;;;;;;;28.36;39.37;100393.03;5025198;28;20048;-67
2021/07/19 09:59:57;;;;;;;8.18;2.60;;;;;;;29.01;38.20;100385.03;5029802;28;20048;-66
2021/07/19 10:02:43;;;;;;;10.15;2.95;;;;;;;29.13;37.22;100386.28;5030945;28;20723;-65
2021/07/19 10:05:30;;;;;;;11.90;2.40;;;;;;;29.49;36.05;100385.91;5030405;28;20045;-65
2021/07/19 10:08:23;;;;;;;8.43;2.65;;;;;;;29.49;36.97;100399.91;5031963;28;20064;-65
2021/07/19 10:11:15;;;;;;;5.25;2.50;;;;;;;29.34;37.31;100388.41;5028455;28;20044;-67
2021/07/19 10:14:01;;;;;;;10.57;2.90;;;;;;;29.04;36.91;100386.97;5028730;28;20049;-66
2021/07/19 10:16:46;;;;;;;9.50;2.65;;;;;;;29.45;36.22;100394.44;5027392;28;20520;-66
2021/07/19 10:19:34;;;;;;;4.80;1.83;;;;;;;29.96;33.06;100389.44;5037920;28;20608;-66
2021/07/19 10:22:19;;;;;;;7.95;1.95;;;;;;;29.78;34.49;100386.47;5029694;28;20056;-66
2021/07/19 10:25:06;;;;;;;8.63;1.95;;;;;;;30.15;33.11;100388.34;5022894;28;20053;-65
2021/07/19 10:27:51;;;;;;;3.65;1.85;;;;;;;30.08;32.67;100387.81;5030969;28;20124;-66
2021/07/19 10:30:36;;;;;;;10.18;1.88;;;;;;;30.46;32.38;100382.78;5024986;28;20072;-66
2021/07/19 10:33:21;;;;;;;4.70;1.73;;;;;;;29.79;34.57;100387.25;5031600;28;20056;-67
2021/07/19 10:36:08;;;;;;;6.97;2.17;;;;;;;29.05;35.75;100387.75;5028838;28;20060;-67
2021/07/19 10:39:15;;;;;;;14.90;2.17;;;;;;;29.49;34.76;100378.28;5034721;28;20509;-67
2021/07/19 10:42:07;;;;;;;7.78;2.00;;;;;;;29.68;34.02;100388.41;5023656;28;20048;-67
2021/07/19 10:44:52;;;;;;;11.55;2.65;;;;;;;29.50;33.65;100387.47;5024285;28;20405;-67
2021/07/19 10:47:54;;;;;;;5.75;1.92;;;;;;;29.29;34.46;100384.13;5035723;28;20036;-65
2021/07/19 10:50:40;;;;;;;4.13;1.60;;;;;;;29.02;34.76;100389.41;5031447;28;20045;-67
2021/07/19 10:53:31;;;;;;;2.63;2.10;;;;;;;29.20;35.58;100380.44;5030343;28;20512;-66
2021/07/19 10:56:26;;;;;;;5.20;1.90;;;;;;;29.93;33.84;100381.16;5038237;28;20040;-65
2021/07/19 10:59:21;;;;;;;;;;;;;;;29.85;33.99;100383.41;5030638;28;20049;-65
2021/07/19 11:02:06;;;;;;;4.22;1.90;;;;;;;29.19;35.56;100379.66;5031493;28;19913;-67
2021/07/19 11:04:51;;;;;;;6.45;1.95;;;;;;;29.55;35.19;100384.09;5033434;28;20068;-66
2021/07/19 11:07:40;;;;;;;4.22;2.05;;;;;;;30.00;33.64;100375.28;5037474;28;20045;-67
2021/07/19 11:10:25;;;;;;;5.45;2.28;;;;;;;30.23;33.84;100360.78;5034864;28;20060;-66
2021/07/19 11:13:10;;;;;;;16.48;2.42;;;;;;;30.48;33.63;100374.69;5032091;28;20232;-67
2021/07/19 11:15:55;;;;;;;7.30;2.67;;;;;;;30.64;33.37;100375.69;5032408;28;20049;-65
2021/07/19 11:18:51;;;;;;;8.13;2.05;;;;;;;30.69;32.35;100375.09;5030310;28;20044;-67
2021/07/19 11:21:37;;;;;;;7.50;2.72;;;;;;;30.46;34.19;100370.75;5030147;28;20053;-67
2021/07/19 11:24:23;;;;;;;5.43;2.35;;;;;;;30.54;33.14;100370.03;5039231;28;20052;-65
2021/07/19 11:27:08;;;;;;;4.22;1.73;;;;;;;30.20;33.33;100369.34;5038057;28;20068;-67
2021/07/19 11:30:07;;;;;;;5.00;2.22;;;;;;;30.14;34.68;100363.53;5024947;28;20044;-67
2021/07/19 11:32:52;;;;;;;7.25;2.42;;;;;;;30.95;33.12;100368.00;5038819;28;20056;-66
2021/07/19 11:35:40;;;;;;;4.75;2.05;;;;;;;31.39;31.23;100369.38;5033501;28;20052;-66
2021/07/19 11:38:36;;;;;;;6.13;2.47;;;;;;;30.85;33.13;100366.41;5031374;28;20059;-66
2021/07/19 11:41:30;;;;;;;4.40;1.75;;;;;;;29.18;36.91;100366.09;5035320;28;20064;-66
2021/07/19 11:44:17;;;;;;;6.63;2.53;;;;;;;28.40;39.06;100357.34;5033841;28;20040;-67
2021/07/19 11:47:05;;;;;;;7.70;1.80;;;;;;;28.79;35.63;100358.97;5032996;28;20044;-66
2021/07/19 11:49:58;;;;;;;6.05;1.98;;;;;;;29.51;35.56;100355.41;5032345;28;20064;-67
2021/07/19 11:52:44;;;;;;;4.03;2.15;;;;;;;29.68;34.41;100354.78;5033626;28;20052;-66
2021/07/19 11:55:29;;;;;;;5.57;2.38;;;;;;;29.02;37.16;100355.81;5032656;28;20048;-66
2021/07/19 11:58:14;;;;;;;11.10;2.65;;;;;;;29.25;35.94;100349.06;5035098;28;20416;-67
2021/07/19 12:01:03;;;;;;;2.13;1.80;;;;;;;30.38;32.88;100350.59;5029222;28;20052;-66
2021/07/19 12:03:52;;;;;;;6.35;2.13;;;;;;;29.43;36.34;100345.66;5035754;28;20044;-66
2021/07/19 12:06:37;;;;;;;3.90;1.95;;;;;;;29.31;36.77;100347.25;5035049;28;20068;-66
2021/07/19 12:09:22;;;;;;;5.80;1.90;;;;;;;29.41;35.94;100346.13;5033735;28;20155;-65
2021/07/19 12:12:08;;;;;;;4.15;2.20;;;;;;;29.83;34.54;100343.03;5034094;28;20512;-65
2021/07/19 12:14:58;;;;;;;4.03;1.90;;;;;;;30.76;33.63;100344.72;5031967;28;20120;-65
2021/07/19 12:17:43;;;;;;;8.50;2.60;;;;;;;30.73;33.19;100347.66;5030867;28;20052;-65
2021/07/19 12:20:30;;;;;;;9.38;2.20;;;;;;;30.37;34.41;100342.66;5035233;28;20522;-66
2021/07/19 12:23:15;;;;;;;7.63;2.13;;;;;;;30.38;33.44;100336.56;5034549;28;20045;-65
2021/07/19 12:26:00;;;;;;;5.28;1.60;;;;;;;29.94;34.16;100335.84;5031841;28;20032;-64
2021/07/19 12:28:55;;;;;;;3.70;2.28;;;;;;;29.87;34.87;100335.31;5037377;28;20044;-65
2021/07/19 12:31:43;;;;;;;5.68;2.13;;;;;;;29.31;35.96;100339.66;5036941;28;20060;-66
2021/07/19 12:34:29;;;;;;;5.75;1.85;;;;;;;29.40;35.45;100338.19;5030454;28;20053;-66
2021/07/19 12:37:17;;;;;;;2.85;1.70;;;;;;;29.12;36.38;100337.88;5035988;28;20052;-66
2021/07/19 12:40:04;;;;;;;4.13;2.05;;;;;;;29.06;36.55;100341.69;5031321;28;20405;-68
2021/07/19 12:42:51;;;;;;;3.55;2.22;;;;;;;29.23;34.08;100334.72;5031921;28;20064;-67
2021/07/19 12:45:37;;;;;;;5.78;1.70;;;;;;;29.65;34.34;100338.88;5031703;28;20044;-67
2021/07/19 12:48:23;;;;;;;9.75;2.10;;;;;;;29.51;35.96;100330.19;5034733;28;20060;-66
2021/07/19 12:51:08;;;;;;;4.18;1.70;;;;;;;29.38;35.72;100333.03;5029704;28;20575;-65
2021/07/19 12:54:04;;;;;;;5.07;1.88;;;;;;;29.46;35.33;100328.72;5036521;28;20116;-66
2021/07/19 12:56:49;;;;;;;3.92;1.85;;;;;;;29.62;34.79;100334.16;5032295;28;20056;-66
2021/07/19 12:59:36;;;;;;;4.18;2.10;;;;;;;29.92;32.93;100324.28;5030173;28;20044;-67